Terminal Aerodrome Forecast
Issued by NWS Sterling, VA

Home | Current Version | Previous Version | Text Only | Print | Product List | Glossary On
Versions: 1 2 3 4 5 6 7 8 9 10 11 12 13 14 15 16 17 18 19 20 21 22 23 24
844
FTUS41 KLWX 202320
TAFBWI
TAF
KBWI 202320Z 2100/2206 22006KT P6SM SCT250
     FM211100 21008KT P6SM FEW250 WS020/22040KT
     FM211300 21009KT P6SM FEW250
     FM220500 21007KT P6SM BKN060=

USA.gov is the U.S. government's official web portal to all federal, state and local government web resources and services.